Time;durP1;ratioP1;P1;durP2;ratioP2;P2;SDS_P1;SDS_P2;PMS_P1;PMS_P2;Temp;Humidity;BMP_temperature;BMP_pressure;BME280_temperature;BME280_humidity;BME280_pressure;Samples;Min_cycle;Max_cycle;Signal;HPM_P1;HPM_P2
2023/05/11 00:01:06;;;;;;;1.88;1.27;;;13.70;89.80;;;;;;6246273;22;20099;-73
2023/05/11 00:03:32;;;;;;;;;;;13.60;89.80;;;;;;6274288;22;20007;-73
2023/05/11 00:05:58;;;;;;;1.42;1.10;;;13.70;89.80;;;;;;6275238;22;19907;-73
2023/05/11 00:08:23;;;;;;;1.38;1.10;;;13.70;89.80;;;;;;6275274;22;20008;-72
2023/05/11 00:10:49;;;;;;;1.58;1.10;;;13.70;89.80;;;;;;6274976;22;20038;-73
2023/05/11 00:13:15;;;;;;;1.67;1.20;;;13.70;89.90;;;;;;6275055;22;20030;-73
2023/05/11 00:15:41;;;;;;;2.05;1.10;;;13.60;89.80;;;;;;6244561;22;20309;-73
2023/05/11 00:18:07;;;;;;;1.30;1.08;;;13.70;89.90;;;;;;6246974;22;20011;-73
2023/05/11 00:20:33;;;;;;;1.85;1.35;;;13.60;89.90;;;;;;6275253;22;20015;-73
2023/05/11 00:22:58;;;;;;;1.65;1.30;;;13.70;90.00;;;;;;6274938;22;20007;-73
2023/05/11 00:25:24;;;;;;;1.30;1.00;;;13.70;90.00;;;;;;6275311;22;20011;-73
2023/05/11 00:27:50;;;;;;;2.10;1.35;;;13.70;90.00;;;;;;6275104;22;20060;-73
2023/05/11 00:30:15;;;;;;;1.45;1.20;;;13.70;90.00;;;;;;6275179;22;20012;-72
2023/05/11 00:32:42;;;;;;;1.58;1.10;;;13.70;90.00;;;;;;6247436;22;20511;-73
2023/05/11 00:35:09;;;;;;;2.17;1.30;;;13.70;89.90;;;;;;6275063;22;20039;-73
2023/05/11 00:37:35;;;;;;;2.10;1.50;;;13.70;89.90;;;;;;6274735;22;20099;-73
2023/05/11 00:40:01;;;;;;;2.25;1.48;;;13.70;90.00;;;;;;6274832;22;20391;-72
2023/05/11 00:42:27;;;;;;;2.05;1.40;;;13.70;90.00;;;;;;6274838;22;20438;-73
2023/05/11 00:44:53;;;;;;;2.50;1.63;;;13.70;90.00;;;;;;6274488;22;20015;-73
2023/05/11 00:47:18;;;;;;;1.58;1.05;;;13.70;90.00;;;;;;6274523;22;20008;-73
2023/05/11 00:49:45;;;;;;;3.05;1.30;;;13.70;90.00;;;;;;6247307;22;20007;-73
2023/05/11 00:52:11;;;;;;;1.30;1.00;;;13.70;90.00;;;;;;6274853;22;20493;-73
2023/05/11 00:54:38;;;;;;;2.03;1.23;;;13.70;90.00;;;;;;6274435;22;20008;-72
2023/05/11 00:57:04;;;;;;;1.65;1.25;;;13.60;90.00;;;;;;6244955;22;20366;-72
2023/05/11 00:59:29;;;;;;;2.42;1.20;;;13.60;90.10;;;;;;6274437;22;20015;-73
2023/05/11 01:01:56;;;;;;;1.20;1.10;;;13.60;90.10;;;;;;6246946;22;20427;-73
2023/05/11 01:04:22;;;;;;;1.73;1.23;;;13.60;90.10;;;;;;6274593;22;20091;-73
2023/05/11 01:07:11;;;;;;;1.63;1.23;;;13.60;90.10;;;;;;6241712;22;20093;-73
2023/05/11 01:09:55;;;;;;;2.00;1.33;;;13.60;90.20;;;;;;6274321;22;20332;-72
2023/05/11 01:12:44;;;;;;;1.52;1.15;;;13.60;90.20;;;;;;6274389;22;20008;-73
2023/05/11 01:15:13;;;;;;;2.20;1.38;;;13.50;90.20;;;;;;6274918;22;20050;-72
2023/05/11 01:17:49;;;;;;;2.28;1.50;;;13.50;90.10;;;;;;6274462;22;20050;-73
2023/05/11 01:20:20;;;;;;;2.22;1.48;;;13.60;90.20;;;;;;6274670;22;20501;-73
2023/05/11 01:23:18;;;;;;;2.10;1.35;;;13.60;90.10;;;;;;6274345;22;20137;-73
2023/05/11 01:26:16;;;;;;;1.30;1.05;;;13.60;90.20;;;;;;6249851;22;20016;-72
2023/05/11 01:29:04;;;;;;;1.27;1.10;;;13.60;90.10;;;;;;6274398;22;20034;-73
2023/05/11 01:31:31;;;;;;;1.90;1.35;;;13.70;90.20;;;;;;6274208;22;20015;-72
2023/05/11 01:34:03;;;;;;;1.88;1.30;;;13.60;90.10;;;;;;6274194;22;20013;-72
2023/05/11 01:36:33;;;;;;;2.03;1.33;;;13.60;90.10;;;;;;6274870;22;20031;-72
2023/05/11 01:39:04;;;;;;;1.40;1.10;;;13.60;90.10;;;;;;6276376;22;20053;-72
2023/05/11 01:41:32;;;;;;;1.35;1.20;;;13.70;90.10;;;;;;6247667;22;20087;-72
2023/05/11 01:44:04;;;;;;;2.25;1.50;;;13.60;90.10;;;;;;6275732;22;20011;-72
2023/05/11 01:46:32;;;;;;;2.08;1.38;;;13.60;90.10;;;;;;6276398;22;20012;-72
2023/05/11 01:49:00;;;;;;;2.65;1.60;;;13.60;90.10;;;;;;6275723;22;20436;-72
2023/05/11 01:51:30;;;;;;;1.80;1.23;;;13.60;90.10;;;;;;6275607;22;20011;-72
2023/05/11 01:53:58;;;;;;;1.88;1.27;;;13.60;90.10;;;;;;6275712;22;20075;-72
2023/05/11 01:56:25;;;;;;;1.52;1.17;;;13.60;90.10;;;;;;6275906;22;20014;-73
2023/05/11 01:58:54;;;;;;;2.03;1.38;;;13.70;90.20;;;;;;6248429;22;20436;-72
2023/05/11 02:01:20;;;;;;;1.88;1.20;;;13.60;90.20;;;;;;6275544;22;20064;-73
2023/05/11 02:03:47;;;;;;;2.17;1.30;;;13.60;90.20;;;;;;6276279;22;20420;-73
2023/05/11 02:06:14;;;;;;;2.13;1.30;;;13.60;90.20;;;;;;6275926;22;20014;-72
2023/05/11 02:08:40;;;;;;;1.00;0.90;;;13.60;90.20;;;;;;6275765;22;20022;-73
2023/05/11 02:11:09;;;;;;;2.33;1.38;;;13.60;90.20;;;;;;6276315;22;20061;-73
2023/05/11 02:13:37;;;;;;;1.40;0.98;;;13.70;90.30;;;;;;6276383;22;20026;-73
2023/05/11 02:16:04;;;;;;;1.73;1.20;;;13.60;90.30;;;;;;6276355;22;20004;-72
2023/05/11 02:18:32;;;;;;;1.80;1.10;;;13.60;90.30;;;;;;6275612;22;20008;-73
2023/05/11 02:20:59;;;;;;;1.92;1.10;;;13.60;90.30;;;;;;6246126;22;20098;-73
2023/05/11 02:23:26;;;;;;;1.98;1.30;;;13.60;90.30;;;;;;6275575;22;20110;-72
2023/05/11 02:25:53;;;;;;;2.30;1.30;;;13.60;90.30;;;;;;6275566;22;20393;-72
2023/05/11 02:28:19;;;;;;;1.27;1.10;;;13.70;90.40;;;;;;6275592;22;20007;-72
2023/05/11 02:30:48;;;;;;;1.95;1.20;;;13.60;90.40;;;;;;6275648;22;20018;-73
2023/05/11 02:33:21;;;;;;;1.67;1.15;;;13.60;90.40;;;;;;6275360;22;20015;-72
2023/05/11 02:35:48;;;;;;;2.00;1.40;;;13.60;90.40;;;;;;6275447;22;20451;-73
2023/05/11 02:38:16;;;;;;;1.73;1.05;;;13.60;90.40;;;;;;6246421;22;20015;-73
2023/05/11 02:40:46;;;;;;;1.77;1.10;;;13.60;90.40;;;;;;6276335;22;20324;-74
2023/05/11 02:43:17;;;;;;;1.67;1.10;;;13.50;90.40;;;;;;6275578;22;20007;-73
2023/05/11 02:45:45;;;;;;;1.67;1.05;;;13.60;90.50;;;;;;6275744;22;20057;-73
2023/05/11 02:48:20;;;;;;;1.67;0.93;;;13.60;90.50;;;;;;6275719;22;20035;-73
2023/05/11 02:50:47;;;;;;;2.45;1.20;;;13.50;90.50;;;;;;6275772;22;20012;-73
2023/05/11 02:53:16;;;;;;;2.10;1.00;;;13.60;90.50;;;;;;6275687;22;20008;-74
2023/05/11 02:55:42;;;;;;;1.58;1.05;;;13.50;90.50;;;;;;6275450;22;20008;-73
2023/05/11 02:58:08;;;;;;;1.45;1.08;;;13.60;90.50;;;;;;6275751;22;20030;-74
2023/05/11 03:00:33;;;;;;;2.05;1.15;;;13.50;90.40;;;;;;6246596;22;20344;-73
2023/05/11 03:03:00;;;;;;;2.10;1.00;;;13.60;90.50;;;;;;6245562;22;20008;-73
2023/05/11 03:05:26;;;;;;;1.92;1.17;;;13.60;90.50;;;;;;6247831;22;20512;-74
2023/05/11 03:07:56;;;;;;;2.28;1.35;;;13.60;90.50;;;;;;6276051;22;20039;-74
2023/05/11 03:10:23;;;;;;;2.28;1.20;;;13.60;90.50;;;;;;6275664;22;20431;-73
2023/05/11 03:12:49;;;;;;;1.85;1.02;;;13.50;90.50;;;;;;6275216;22;20008;-74
2023/05/11 03:15:15;;;;;;;1.95;1.30;;;13.60;90.50;;;;;;6275652;22;20086;-73
2023/05/11 03:17:42;;;;;;;1.10;0.98;;;13.60;90.60;;;;;;6247908;22;20387;-74
2023/05/11 03:20:08;;;;;;;3.17;1.60;;;13.60;90.60;;;;;;6275708;22;20007;-74
2023/05/11 03:22:36;;;;;;;2.88;1.63;;;13.50;90.50;;;;;;6276081;22;20004;-73
2023/05/11 03:25:03;;;;;;;2.33;1.38;;;13.60;90.50;;;;;;6275631;22;20011;-73
2023/05/11 03:27:30;;;;;;;2.67;1.45;;;13.50;90.50;;;;;;6275492;22;20042;-73
2023/05/11 03:29:57;;;;;;;2.13;1.30;;;13.50;90.50;;;;;;6275180;22;20012;-73
2023/05/11 03:32:23;;;;;;;2.83;1.50;;;13.50;90.50;;;;;;6275451;22;20003;-73
2023/05/11 03:34:49;;;;;;;1.52;1.15;;;13.50;90.50;;;;;;6275573;22;20049;-73
2023/05/11 03:37:18;;;;;;;2.15;1.17;;;13.60;90.60;;;;;;6275935;22;20420;-73
2023/05/11 03:39:46;;;;;;;2.20;1.38;;;13.60;90.60;;;;;;6275874;22;20337;-71
2023/05/11 03:42:14;;;;;;;2.05;0.98;;;13.50;90.60;;;;;;6275759;22;20012;-73
2023/05/11 03:44:43;;;;;;;1.92;1.10;;;13.50;90.60;;;;;;6275753;22;20042;-73
2023/05/11 03:47:09;;;;;;;2.55;1.20;;;13.50;90.60;;;;;;6275428;22;20378;-74
2023/05/11 03:49:36;;;;;;;2.40;1.25;;;13.50;90.60;;;;;;6245864;22;20065;-73
2023/05/11 03:52:05;;;;;;;1.77;1.23;;;13.50;90.60;;;;;;6275295;22;20428;-73
2023/05/11 03:54:31;;;;;;;2.38;1.40;;;13.50;90.90;;;;;;6275984;22;20371;-73
2023/05/11 03:56:57;;;;;;;2.47;1.23;;;13.50;90.60;;;;;;6275885;22;20003;-73
2023/05/11 03:59:23;;;;;;;2.65;1.40;;;13.40;90.60;;;;;;6245887;22;20012;-73
2023/05/11 04:01:51;;;;;;;2.30;1.25;;;13.40;90.70;;;;;;6245561;22;20040;-73
2023/05/11 04:04:18;;;;;;;2.20;1.33;;;13.40;90.70;;;;;;6275344;22;20436;-73
2023/05/11 04:06:44;;;;;;;1.60;1.10;;;13.40;90.80;;;;;;6275412;22;20014;-73
2023/05/11 04:09:10;;;;;;;2.10;1.20;;;13.30;90.80;;;;;;6223335;22;20482;-73
2023/05/11 04:11:36;;;;;;;1.70;1.10;;;13.30;90.80;;;;;;6275835;22;20008;-73
2023/05/11 04:14:03;;;;;;;1.80;1.30;;;13.30;90.80;;;;;;6275346;22;20011;-73
2023/05/11 04:16:29;;;;;;;2.00;1.05;;;13.40;90.80;;;;;;6246835;22;20004;-73
2023/05/11 04:18:54;;;;;;;1.73;1.10;;;13.40;90.80;;;;;;6220759;22;20019;-73
2023/05/11 04:21:20;;;;;;;1.80;1.17;;;13.30;90.80;;;;;;6275923;22;20008;-73
2023/05/11 04:23:46;;;;;;;2.88;1.30;;;13.40;90.80;;;;;;6275257;22;20007;-73
2023/05/11 04:26:11;;;;;;;2.42;1.50;;;13.40;90.80;;;;;;6275512;22;20459;-73
2023/05/11 04:28:37;;;;;;;2.17;1.25;;;13.40;90.80;;;;;;6275297;22;20091;-74
2023/05/11 04:31:02;;;;;;;2.17;1.20;;;13.40;90.70;;;;;;6247276;22;20073;-73
2023/05/11 04:33:28;;;;;;;2.20;1.27;;;13.40;90.70;;;;;;6275009;22;20007;-74
2023/05/11 04:35:57;;;;;;;2.67;1.30;;;13.40;90.70;;;;;;6275221;22;20432;-74
2023/05/11 04:38:23;;;;;;;1.52;0.88;;;13.40;90.70;;;;;;6275099;22;20053;-74
2023/05/11 04:40:49;;;;;;;2.50;1.27;;;13.40;90.70;;;;;;6247039;22;20020;-74
2023/05/11 04:43:15;;;;;;;2.13;1.40;;;13.40;90.70;;;;;;6275719;22;20022;-74
2023/05/11 04:45:46;;;;;;;2.38;1.48;;;13.50;90.70;;;;;;6245446;22;20027;-73
2023/05/11 04:48:11;;;;;;;2.25;1.20;;;13.40;90.70;;;;;;6274952;22;20007;-74
2023/05/11 04:50:37;;;;;;;2.83;1.35;;;13.40;90.70;;;;;;6274985;22;20089;-73
2023/05/11 04:53:02;;;;;;;1.70;1.00;;;13.40;90.70;;;;;;6275074;22;20008;-73
2023/05/11 04:55:28;;;;;;;2.22;1.20;;;13.40;90.70;;;;;;6245693;22;20396;-73
2023/05/11 04:57:54;;;;;;;2.70;1.40;;;13.40;90.80;;;;;;6248285;22;20008;-73
2023/05/11 05:00:20;;;;;;;2.05;1.38;;;13.30;90.80;;;;;;6275345;22;20016;-74
2023/05/11 05:02:45;;;;;;;2.42;1.38;;;13.40;90.80;;;;;;6275067;22;20014;-73
2023/05/11 05:05:11;;;;;;;2.63;1.40;;;13.30;90.80;;;;;;6274951;22;20087;-73
2023/05/11 05:07:37;;;;;;;2.22;1.23;;;13.30;90.80;;;;;;6274711;22;20008;-73
2023/05/11 05:10:05;;;;;;;1.92;1.15;;;13.30;90.80;;;;;;6275072;22;20008;-73
2023/05/11 05:12:31;;;;;;;2.58;1.60;;;13.30;90.80;;;;;;6246268;22;20032;-73
2023/05/11 05:14:56;;;;;;;2.58;1.30;;;13.30;90.80;;;;;;6276786;22;20431;-73
2023/05/11 05:17:22;;;;;;;2.20;1.35;;;13.40;90.90;;;;;;6276542;22;20462;-73
2023/05/11 05:19:48;;;;;;;2.65;1.20;;;13.30;90.80;;;;;;6247206;22;20008;-74
2023/05/11 05:22:14;;;;;;;2.33;1.45;;;13.30;90.80;;;;;;6246254;22;20012;-73
2023/05/11 05:24:40;;;;;;;2.95;1.50;;;13.40;90.90;;;;;;6276746;22;20007;-73
2023/05/11 05:27:05;;;;;;;2.88;1.48;;;13.30;90.80;;;;;;6276906;22;20061;-73
2023/05/11 05:29:31;;;;;;;3.65;1.60;;;13.40;90.90;;;;;;6276664;22;20347;-73
2023/05/11 05:31:58;;;;;;;2.92;1.25;;;13.40;90.80;;;;;;6276861;22;20091;-73
2023/05/11 05:34:27;;;;;;;2.83;1.67;;;13.40;90.80;;;;;;6276639;22;20016;-73
2023/05/11 05:36:52;;;;;;;3.22;1.67;;;13.40;90.80;;;;;;6248193;22;20475;-73
2023/05/11 05:39:19;;;;;;;3.83;2.00;;;13.40;90.80;;;;;;6276718;22;20004;-73
2023/05/11 05:41:44;;;;;;;3.60;1.80;;;13.40;90.80;;;;;;6246205;22;20004;-73
2023/05/11 05:44:10;;;;;;;2.70;1.45;;;13.40;90.80;;;;;;6276648;22;20008;-72
2023/05/11 05:46:35;;;;;;;3.72;1.80;;;13.40;90.80;;;;;;6275936;22;20057;-73
2023/05/11 05:49:01;;;;;;;3.58;1.90;;;13.50;90.80;;;;;;6276321;22;20011;-73
2023/05/11 05:51:27;;;;;;;3.75;1.75;;;13.50;90.80;;;;;;6275967;22;20011;-73
2023/05/11 05:53:52;;;;;;;3.42;1.60;;;13.50;90.80;;;;;;6276736;22;20007;-73
2023/05/11 05:56:18;;;;;;;2.17;1.20;;;13.50;90.70;;;;;;6276703;22;20007;-73
2023/05/11 05:58:44;;;;;;;2.38;1.30;;;13.60;90.70;;;;;;6276737;22;20370;-73
2023/05/11 06:01:09;;;;;;;2.83;1.52;;;13.70;90.70;;;;;;6247986;22;20044;-73
2023/05/11 06:03:35;;;;;;;2.05;1.27;;;13.70;90.70;;;;;;6276021;22;20083;-73
2023/05/11 06:06:01;;;;;;;2.92;1.67;;;13.80;90.70;;;;;;6275743;22;20450;-73
2023/05/11 06:08:27;;;;;;;2.97;1.70;;;13.80;90.70;;;;;;6247754;22;20016;-73
2023/05/11 06:10:53;;;;;;;2.72;1.60;;;13.80;90.60;;;;;;6275613;22;20102;-73
2023/05/11 06:13:18;;;;;;;3.58;1.52;;;13.80;90.60;;;;;;6276300;22;20042;-73
2023/05/11 06:15:44;;;;;;;3.25;1.65;;;13.90;90.60;;;;;;6276168;22;20374;-73
2023/05/11 06:18:10;;;;;;;3.63;1.70;;;13.90;90.50;;;;;;6247203;22;20088;-73
2023/05/11 06:20:35;;;;;;;3.00;1.50;;;14.00;90.50;;;;;;6246198;22;20339;-73
2023/05/11 06:23:01;;;;;;;2.97;1.70;;;14.10;90.50;;;;;;6276350;22;20011;-73
2023/05/11 06:25:26;;;;;;;4.55;2.25;;;14.20;90.50;;;;;;6276291;22;20031;-73
2023/05/11 06:27:52;;;;;;;4.50;2.67;;;14.30;90.50;;;;;;6276090;22;20015;-73
2023/05/11 06:30:18;;;;;;;5.65;2.67;;;14.40;90.40;;;;;;6275772;22;20011;-73
2023/05/11 06:32:43;;;;;;;3.80;2.03;;;14.50;90.30;;;;;;6275723;22;20015;-73
2023/05/11 06:35:09;;;;;;;3.35;1.85;;;14.60;90.20;;;;;;6275781;22;20015;-73
2023/05/11 06:37:35;;;;;;;2.65;1.70;;;14.50;90.10;;;;;;6276433;22;20011;-73
2023/05/11 06:40:01;;;;;;;3.97;2.00;;;14.60;90.10;;;;;;6276140;22;20090;-73
2023/05/11 06:42:26;;;;;;;4.57;2.33;;;14.70;90.10;;;;;;6276290;22;20011;-73
2023/05/11 06:44:52;;;;;;;5.00;2.67;;;14.70;90.10;;;;;;6276541;22;20425;-73
2023/05/11 06:47:18;;;;;;;3.25;1.92;;;14.80;90.00;;;;;;6276528;22;20121;-72
2023/05/11 06:49:43;;;;;;;4.35;2.25;;;14.80;90.00;;;;;;6275700;22;20010;-73
2023/05/11 06:52:09;;;;;;;3.53;1.83;;;14.80;90.00;;;;;;6247168;22;20028;-73
2023/05/11 06:54:35;;;;;;;4.65;2.33;;;14.80;90.00;;;;;;6248706;22;20016;-73
2023/05/11 06:57:03;;;;;;;2.80;1.75;;;14.80;90.10;;;;;;6247586;22;20432;-72
2023/05/11 06:59:29;;;;;;;4.35;2.47;;;14.80;90.10;;;;;;6276413;22;20004;-73
2023/05/11 07:01:55;;;;;;;5.40;2.95;;;14.90;90.10;;;;;;6247177;22;20316;-73
2023/05/11 07:04:21;;;;;;;3.58;2.30;;;14.80;90.00;;;;;;6223293;22;20084;-73
2023/05/11 07:06:46;;;;;;;5.03;2.30;;;14.90;90.00;;;;;;6222440;22;20039;-73
2023/05/11 07:09:12;;;;;;;3.05;1.90;;;14.80;90.00;;;;;;6221321;22;20008;-73
2023/05/11 07:11:38;;;;;;;3.10;1.92;;;14.90;90.10;;;;;;6220316;22;20016;-73
2023/05/11 07:14:04;;;;;;;4.53;2.28;;;14.90;90.10;;;;;;6222850;22;20428;-73
2023/05/11 07:16:30;;;;;;;2.95;1.80;;;14.90;90.10;;;;;;6276045;22;20008;-73
2023/05/11 07:18:56;;;;;;;3.42;1.80;;;14.90;90.20;;;;;;6221021;22;20062;-73
2023/05/11 07:21:21;;;;;;;3.05;1.80;;;14.90;90.20;;;;;;6275636;22;20466;-73
2023/05/11 07:23:47;;;;;;;4.40;2.60;;;14.80;90.20;;;;;;6247973;22;20450;-73
2023/05/11 07:26:13;;;;;;;3.80;2.17;;;14.90;90.20;;;;;;6275611;22;20011;-73
2023/05/11 07:28:39;;;;;;;5.60;2.83;;;15.00;90.20;;;;;;6275729;22;20011;-72
2023/05/11 07:31:05;;;;;;;6.10;3.25;;;15.00;90.20;;;;;;6275444;22;20019;-72
2023/05/11 07:33:33;;;;;;;4.68;2.67;;;15.00;90.10;;;;;;6276151;22;20008;-73
2023/05/11 07:36:01;;;;;;;4.05;2.42;;;15.20;90.10;;;;;;6275079;22;20003;-73
2023/05/11 07:38:26;;;;;;;3.50;2.30;;;15.10;90.00;;;;;;6245784;22;20131;-73
2023/05/11 07:40:52;;;;;;;3.95;2.40;;;15.10;89.90;;;;;;6275492;22;20379;-72
2023/05/11 07:43:29;;;;;;;4.10;2.38;;;15.10;90.00;;;;;;6247055;22;20039;-72
2023/05/11 07:46:17;;;;;;;4.35;2.25;;;15.10;90.00;;;;;;6211486;23;20052;-72
2023/05/11 07:48:55;;;;;;;4.53;2.78;;;15.20;90.10;;;;;;6186950;23;20017;-72
2023/05/11 07:51:25;;;;;;;5.90;3.42;;;15.30;90.10;;;;;;6122394;23;20029;-73
2023/05/11 07:53:56;;;;;;;6.77;3.07;;;15.30;90.00;;;;;;6098160;23;20018;-72
2023/05/11 07:56:22;;;;;;;3.97;2.60;;;15.40;89.80;;;;;;6098522;23;20312;-73
2023/05/11 07:58:47;;;;;;;4.50;2.47;;;15.40;89.90;;;;;;6098255;23;20550;-72
2023/05/11 08:01:13;;;;;;;5.28;2.92;;;15.50;89.80;;;;;;6122885;23;20028;-72
2023/05/11 08:03:38;;;;;;;4.85;2.90;;;15.50;89.70;;;;;;6098673;23;20018;-72
2023/05/11 08:06:05;;;;;;;5.35;2.83;;;15.50;89.60;;;;;;6122584;23;20355;-72
2023/05/11 08:08:30;;;;;;;4.80;2.80;;;15.60;89.50;;;;;;6074106;23;20025;-72
2023/05/11 08:10:56;;;;;;;4.95;2.97;;;15.60;89.40;;;;;;6098082;23;20443;-71
2023/05/11 08:13:22;;;;;;;5.13;2.90;;;15.70;89.30;;;;;;6098185;23;20017;-72
2023/05/11 08:15:47;;;;;;;4.82;2.83;;;15.70;89.20;;;;;;6166452;23;20012;-71
2023/05/11 08:18:13;;;;;;;5.75;3.70;;;15.70;89.30;;;;;;6247308;22;20016;-72
2023/05/11 08:20:41;;;;;;;5.20;2.80;;;15.70;89.30;;;;;;6246174;22;20018;-73
2023/05/11 08:23:07;;;;;;;4.25;2.40;;;15.70;89.20;;;;;;6275927;22;20090;-73
2023/05/11 08:25:40;;;;;;;3.85;2.30;;;15.80;89.10;;;;;;6276361;22;20012;-73
2023/05/11 08:28:06;;;;;;;3.78;2.25;;;15.80;89.30;;;;;;6245143;22;20313;-73
2023/05/11 08:30:57;;;;;;;3.50;2.20;;;15.80;89.10;;;;;;6275158;22;20046;-73
2023/05/11 08:33:22;;;;;;;4.95;2.70;;;15.90;89.10;;;;;;6181845;23;20013;-73
2023/05/11 08:36:03;;;;;;;4.90;2.70;;;15.80;89.10;;;;;;6183206;23;20017;-73
2023/05/11 08:38:35;;;;;;;3.42;2.13;;;15.90;89.00;;;;;;6182237;23;20089;-73
2023/05/11 08:41:11;;;;;;;4.35;2.55;;;16.00;88.90;;;;;;6122030;23;20070;-73
2023/05/11 08:43:38;;;;;;;4.80;2.75;;;16.00;88.80;;;;;;6122214;23;20022;-72
2023/05/11 08:46:07;;;;;;;4.07;2.35;;;16.20;88.70;;;;;;6122996;23;20455;-73
2023/05/11 08:48:33;;;;;;;3.78;2.15;;;16.40;88.10;;;;;;6099616;23;20022;-73
2023/05/11 08:50:59;;;;;;;3.20;2.08;;;16.50;87.90;;;;;;6124116;23;20014;-73
2023/05/11 08:53:25;;;;;;;6.10;3.05;;;16.50;87.80;;;;;;6124096;23;20025;-73
2023/05/11 08:55:50;;;;;;;3.53;2.33;;;16.50;87.70;;;;;;6124223;23;20027;-73
2023/05/11 08:58:37;;;;;;;4.05;2.60;;;16.50;87.60;;;;;;6170621;23;20055;-73
2023/05/11 09:01:05;;;;;;;3.80;2.20;;;16.50;87.70;;;;;;6179798;23;20016;-72
2023/05/11 09:03:34;;;;;;;2.67;2.00;;;16.50;87.90;;;;;;6212878;23;20039;-72
2023/05/11 09:06:01;;;;;;;2.80;1.83;;;16.40;88.00;;;;;;6256436;22;20016;-72
2023/05/11 09:08:30;;;;;;;3.25;2.13;;;16.50;88.10;;;;;;6198965;22;20428;-72
2023/05/11 09:10:57;;;;;;;3.47;2.20;;;16.50;88.00;;;;;;6276091;22;20015;-72
2023/05/11 09:13:28;;;;;;;5.28;2.90;;;16.70;88.00;;;;;;6276650;22;20011;-73
2023/05/11 09:15:54;;;;;;;6.30;3.63;;;16.80;87.70;;;;;;6275990;22;20012;-73
2023/05/11 09:18:19;;;;;;;5.85;3.38;;;17.00;87.50;;;;;;6246179;22;20446;-72
2023/05/11 09:20:46;;;;;;;5.43;3.15;;;17.00;86.90;;;;;;6275977;22;20086;-72
2023/05/11 09:23:16;;;;;;;4.93;3.25;;;17.00;87.00;;;;;;6247286;22;20012;-72
2023/05/11 09:25:41;;;;;;;4.83;3.03;;;17.20;87.00;;;;;;6276023;22;20012;-72
2023/05/11 09:28:11;;;;;;;3.75;2.50;;;17.40;86.70;;;;;;6276638;22;20034;-70
2023/05/11 09:30:37;;;;;;;5.03;3.20;;;17.50;86.10;;;;;;6246615;22;20023;-72
2023/05/11 09:33:02;;;;;;;4.05;2.50;;;17.60;85.70;;;;;;6275999;22;20328;-72
2023/05/11 09:35:33;;;;;;;4.88;2.83;;;17.60;85.40;;;;;;6247294;22;20011;-72
2023/05/11 09:38:04;;;;;;;;;;;17.60;85.40;;;;;;6276388;22;20083;-72
2023/05/11 09:40:31;;;;;;;2.93;2.00;;;17.50;85.70;;;;;;6276009;22;19910;-72
2023/05/11 09:42:58;;;;;;;3.15;2.10;;;17.50;85.80;;;;;;6276256;22;20015;-72
2023/05/11 09:45:42;;;;;;;4.05;2.42;;;17.30;86.00;;;;;;6246359;22;20019;-72
2023/05/11 09:48:25;;;;;;;3.75;2.50;;;17.20;86.20;;;;;;6246273;22;20012;-71
2023/05/11 09:50:59;;;;;;;3.95;2.33;;;17.10;86.60;;;;;;6276160;22;20484;-73
2023/05/11 09:53:42;;;;;;;2.88;2.00;;;16.90;86.80;;;;;;6220930;22;20356;-72
2023/05/11 09:56:09;;;;;;;3.40;2.25;;;16.80;87.10;;;;;;6276183;22;20087;-72
2023/05/11 09:58:56;;;;;;;2.88;2.05;;;16.70;87.40;;;;;;6275858;22;20011;-72
2023/05/11 10:01:36;;;;;;;2.63;1.75;;;16.70;87.50;;;;;;6248482;22;20082;-71
2023/05/11 10:04:03;;;;;;;4.97;2.88;;;16.60;87.60;;;;;;6247910;22;20487;-71
2023/05/11 10:06:43;;;;;;;2.70;1.88;;;16.60;87.70;;;;;;6221786;22;20148;-71
2023/05/11 10:09:09;;;;;;;2.53;1.77;;;16.40;87.90;;;;;;6223589;22;20011;-72
2023/05/11 10:11:37;;;;;;;2.85;2.03;;;16.40;88.20;;;;;;6276607;22;20016;-72
2023/05/11 10:14:03;;;;;;;3.13;2.00;;;16.40;88.20;;;;;;6276004;22;20008;-72
2023/05/11 10:16:29;;;;;;;2.60;1.83;;;16.40;88.20;;;;;;6276713;22;20082;-72
2023/05/11 10:18:56;;;;;;;4.03;2.33;;;16.30;88.00;;;;;;6276110;22;20006;-72
2023/05/11 10:21:21;;;;;;;3.10;2.00;;;16.30;88.00;;;;;;6276043;22;20020;-72
2023/05/11 10:23:48;;;;;;;2.72;1.85;;;16.20;88.20;;;;;;6275996;22;20496;-72
2023/05/11 10:26:14;;;;;;;2.40;1.73;;;16.10;88.50;;;;;;6275662;22;20012;-73
2023/05/11 10:28:40;;;;;;;3.75;2.30;;;16.00;88.80;;;;;;6276262;22;20500;-72
2023/05/11 10:31:08;;;;;;;3.38;2.00;;;15.90;88.90;;;;;;6275997;22;20043;-72
2023/05/11 10:33:35;;;;;;;3.53;2.03;;;15.90;89.00;;;;;;6247134;22;20012;-72
2023/05/11 10:36:02;;;;;;;2.85;1.98;;;15.90;89.10;;;;;;6275830;22;20043;-72
2023/05/11 10:38:27;;;;;;;2.67;1.73;;;15.80;89.20;;;;;;6275832;22;20090;-72
2023/05/11 10:41:08;;;;;;;2.95;1.75;;;15.80;89.30;;;;;;6275651;22;20050;-72
2023/05/11 10:44:18;;;;;;;3.58;1.80;;;15.80;89.40;;;;;;6221772;22;20008;-72
2023/05/11 10:47:09;;;;;;;2.33;1.52;;;15.80;89.60;;;;;;6231179;22;20011;-73
2023/05/11 10:50:07;;;;;;;3.00;2.03;;;15.70;89.60;;;;;;6195526;23;20116;-73
2023/05/11 10:53:07;;;;;;;3.00;1.92;;;15.60;89.70;;;;;;6221331;23;20008;-73
2023/05/11 10:55:57;;;;;;;2.55;1.55;;;15.70;89.80;;;;;;6239965;22;20010;-74
2023/05/11 10:58:57;;;;;;;2.42;1.48;;;15.70;89.60;;;;;;6241396;22;20016;-74
2023/05/11 11:01:35;;;;;;;2.03;1.30;;;15.60;89.50;;;;;;6215488;22;20365;-74
2023/05/11 11:04:04;;;;;;;3.30;1.75;;;15.60;89.60;;;;;;6218663;22;20044;-74
2023/05/11 11:06:31;;;;;;;2.60;1.55;;;15.50;89.70;;;;;;6242790;22;20119;-74
2023/05/11 11:08:59;;;;;;;2.60;1.85;;;15.50;89.80;;;;;;6192408;22;20070;-75
2023/05/11 11:11:32;;;;;;;3.10;1.83;;;15.50;89.70;;;;;;6241897;22;20053;-75
2023/05/11 11:14:01;;;;;;;2.30;1.60;;;15.40;89.80;;;;;;6242431;22;20510;-75
2023/05/11 11:16:27;;;;;;;2.58;1.75;;;15.40;89.80;;;;;;6191592;22;20004;-74
2023/05/11 11:19:29;;;;;;;2.65;1.67;;;15.40;90.00;;;;;;6167537;22;20004;-74
2023/05/11 11:21:56;;;;;;;1.58;1.02;;;15.40;90.00;;;;;;6247174;22;20020;-74
2023/05/11 11:24:43;;;;;;;1.38;1.02;;;15.40;89.80;;;;;;6275783;22;20015;-73
2023/05/11 11:27:09;;;;;;;1.88;1.10;;;15.40;89.80;;;;;;6253620;22;20015;-73
2023/05/11 11:29:36;;;;;;;1.45;1.00;;;15.20;89.90;;;;;;6248291;22;20056;-74
2023/05/11 11:32:25;;;;;;;1.75;1.10;;;15.10;90.00;;;;;;6275736;22;20008;-73
2023/05/11 11:35:03;;;;;;;2.25;1.45;;;15.00;90.10;;;;;;6275925;22;20008;-73
2023/05/11 11:38:01;;;;;;;2.25;1.45;;;15.00;90.20;;;;;;6246495;22;20077;-73
2023/05/11 11:40:39;;;;;;;1.63;1.30;;;15.00;90.20;;;;;;6276245;22;20011;-74
2023/05/11 11:47:20;;;;;;;2.78;1.80;;;15.00;90.10;;;;;;6270656;22;20027;-74
2023/05/11 11:49:49;;;;;;;1.95;1.50;;;15.00;90.10;;;;;;6275279;22;20432;-74
2023/05/11 11:52:32;;;;;;;3.40;1.90;;;15.10;90.10;;;;;;6275610;22;20013;-74
2023/05/11 11:54:59;;;;;;;2.42;1.50;;;14.90;90.10;;;;;;6276188;22;20004;-77
2023/05/11 11:57:48;;;;;;;1.92;1.27;;;14.90;90.10;;;;;;6275524;22;20031;-78
2023/05/11 12:00:20;;;;;;;1.80;1.20;;;14.90;90.20;;;;;;6246664;22;20099;-74
2023/05/11 12:02:46;;;;;;;2.20;1.58;;;14.90;90.20;;;;;;6275557;22;20011;-75
2023/05/11 12:05:18;;;;;;;1.25;0.93;;;14.90;90.20;;;;;;6275251;22;20046;-74
2023/05/11 12:26:55;;;;;;;1.05;0.95;;;15.00;89.70;;;;;;6036485;23;20356;-74
2023/05/11 12:41:07;;;;;;;0.95;0.80;;;15.20;89.70;;;;;;5954624;24;20061;-74
2023/05/11 13:02:30;;;;;;;1.17;1.00;;;15.20;89.50;;;;;;5729435;24;20047;-72
2023/05/11 13:08:56;;;;;;;1.27;0.88;;;15.30;89.50;;;;;;5862893;24;20026;-73
2023/05/11 13:12:23;;;;;;;1.88;1.13;;;15.40;89.50;;;;;;5760366;24;20130;-73
2023/05/11 13:15:02;;;;;;;1.95;1.40;;;15.40;89.60;;;;;;5723593;24;20087;-72
2023/05/11 13:17:30;;;;;;;1.30;1.02;;;15.40;89.30;;;;;;5711576;25;20024;-72
2023/05/11 13:20:13;;;;;;;2.28;1.52;;;15.40;89.30;;;;;;5711021;25;20425;-73
2023/05/11 13:22:38;;;;;;;2.53;1.40;;;15.40;89.30;;;;;;5711728;25;20016;-72
2023/05/11 13:25:04;;;;;;;1.95;1.40;;;15.50;89.30;;;;;;5711671;25;20047;-73
2023/05/11 13:27:30;;;;;;;1.98;1.30;;;15.60;89.30;;;;;;5734928;24;20339;-73
2023/05/11 13:29:56;;;;;;;2.28;1.70;;;15.60;89.10;;;;;;5703268;25;20083;-73
2023/05/11 13:32:21;;;;;;;2.58;1.83;;;15.70;89.00;;;;;;5711150;25;20025;-73
2023/05/11 13:34:47;;;;;;;3.17;2.00;;;15.70;88.90;;;;;;5712203;25;20475;-73
2023/05/11 13:37:12;;;;;;;3.00;1.80;;;15.70;88.70;;;;;;5712989;25;20028;-73
2023/05/11 13:39:38;;;;;;;2.33;1.48;;;15.70;88.70;;;;;;5750160;24;20028;-73
2023/05/11 13:42:04;;;;;;;1.88;1.30;;;15.80;88.80;;;;;;5852397;23;20098;-73
2023/05/11 13:44:29;;;;;;;2.55;1.65;;;15.80;88.80;;;;;;6049434;23;20089;-73
2023/05/11 13:46:55;;;;;;;1.58;1.27;;;16.00;88.90;;;;;;6097239;23;20492;-74
2023/05/11 13:49:21;;;;;;;1.20;1.10;;;15.90;88.60;;;;;;6097529;23;20010;-73
2023/05/11 13:51:47;;;;;;;1.08;0.98;;;16.00;88.60;;;;;;6125127;23;20465;-74
2023/05/11 13:54:12;;;;;;;1.48;1.30;;;16.00;88.50;;;;;;6099689;23;20010;-74
2023/05/11 13:56:38;;;;;;;1.52;1.33;;;16.00;88.50;;;;;;6125867;23;20002;-74